Timeline UpdatesTrip UpdatesNews PostsPvt PostsTravel TipsAdmin PostsConv PostsFollowed PostsChat RequestsBlog PostsPNR Posts

Disclaimer
Search
 
 
Wed Jul 30, 2014 06:26:51 ISTHomeTrainsΣChainsAtlasPNRForumGalleryNewsFAQTripsMembersLoginFeedback
No Recent News for this Train
Other Trains in the News **new
Latest...
.
Mon Nov 18, 2013 (08:48PM)
⇐ Return Journey: Train# 14649

14650/Saryu Yamuna Express

Nov 18 2013 (8:54PM)
Change Departure Station:
Change Arrival Station:
Post a Train Travel TipPost a Train Travel Tip **new
Post a Comment/Question/Picture/VideoPost a Comment/Question/Picture/Video
Pantry/Catering
✕ NO Pantry Car
✕ NO Catering
Loco/Rake Reversals
SHG/Shahganj Junction (4); SPJ/Samastipur Junction (9);
RSA - Rake Sharing
14673/74 Shaheed Express.
Rake/Coach Composition
LOCO,SLR,UR,S1,UR,UR,UR,B1,AB1,S2,S3,S4,S5,S6,UR,UR,UR,UR,UR,S7,SLR
Loco
AMRITSAR-DELHI: WAP-7 of GHAZIABAD SHED. DELHI-JAYNAGAR: WDM-3A/3D of TUGHLAKABAD/SAMASTIPUR SHED
News    PNR    Forum    Time-Table    Availability    Fare Chart    Map    Arr/Dep History    Trips    Gallery    ΣChains    X/O    Timeline    
Travel Time: 22h 10m    24 halts    Distance: 1066 km    Avg Speed: 48 km/hr
Type: Mail/Express
Zone: NR/Northern
Departs @ 21:15 (Avg 43m late)
Platform# 5
 M W  S
Old Delhi Junction/DLI 
Arrives @ 19:25 +1 night (Avg 4h 5m late)
Platform# ???
S T T  
Muzaffarpur Junction/MFP 

24 halts. 170 intermediate Stations between Old Delhi Junction and Muzaffarpur Junction

Show ALL intermediate Stations  Show Old Time-Table

#CodeStation NameX/OArrivesAvgDepartsAvgHaltPFDay#KmSpeedElevZoneAddress
1ASRAmritsar Junction (5)  -11:55+4421-447.692233mNRAmritsar 143002, Punjab
2BEASBeas Junction (2)  12:23+5712:25+572m21-404.661238mNRBeas, Punjab
3KREKartarpur (2)  12:46+5512:48+542m11-383.252236mNRKartarpur, Punjab
4JUCJalandhar City Junction (5)  13:05+4913:10+515m21-368.526239mNRJalandhar 144001, Punjab
5JRCJalandhar Cantt. Junction (3)  13:21+4913:23+492m21-363.765239mNRNear Rama Mandi, Punjab
6PGWPhagwara Junction (3)  13:38+4813:40+482m11-347.475245mNRPhagwara, Punjab
7PHRPhillaur Junction (3)X  13:58+4614:00+462m11-324.852246mNRPhillaur, Punjab
8LDHLudhiana Junction (7)X  14:15+5014:25+4810m11-311.739246mNRLudhiana 141001, Punjab
9DOADoraha (2)  15:00+4215:02+432m21-289.281261mNRDoraha, Punjab
10KNNKhanna (3)  15:17+4615:19+462m21-268.961269mNRNH 1, Punjab
11GVGMandi Gobindgarh (2)  15:27+4615:29+462m11-260.853268mNRMandi Gobindgarh, Punjab
12SIRSirhind Junction (3)X  15:40+5115:42+512m21-251.088271mNRSirhind, Punjab
13RPJRajpura Junction (3)X  15:59+5016:01+522m21-226.259272mNRNH-1, Punjab
14UBCAmbala City (3)XO  16:22+5016:24+502m11-205.713273mNRNH-1, Haryana
15UMBAmbala Cantt. Junction (7)X  17:00+3617:10+3810m21-198.168278mNRAmbala 133001, Haryana
16KKDEKurukshetra Junction (3)X  17:47+4317:49+432m21-156.074260mNRKurukshetra, Haryana
17KUNKarnal (3)X  18:16+4418:18+442m--1-122.967253mNRKarnal, Haryana
18PNPPanipat Junction (5)  18:49+3918:51+392m21-88.580235mNRPanipat, Haryana
19SNPSonipat (3)  19:25+4019:27+412m--1-43.353225mNRSonipat, Haryana
20SZMDelhi Sabzi Mandi (2)  20:13+3620:15+392m--1-3.06220mNRGulabi Bagh, Delhi NCT
21DLI»Old Delhi Junction (16)»X20:45+3721:15+4330m510.024219mNRNear Chandni Chowk Metro Station, Delhi NCT
22GZBGhaziabad Junction (6)  22:05+3422:07+342m1120.158217mNRGhaziabad, Uttar Pradesh
23HPUHapur Junction (4)  22:45+5822:48+573m2156.873214mNRHapur Jn., Uttar Pradesh
24AMROAmroha (3)X  23:48+1:0123:50+1:012m11130.241217mNRAmroha, Uttar Pradesh
25MBMoradabad Junction (7)X  00:35+5300:45+5910m32160.855201mNRMoradabad, Uttar Pradesh
26RMURampur Junction (3)X  01:15+1:0401:17+1:052m22188.065190mNRRampur, Uttar Pradesh
27BEBareilly Junction (4)X  02:15+1:0902:20+1:085m12251.165174mNRBareilly, Uttar Pradesh
28SPNShahjahanpur Junction (3)X  03:25+1:1103:30+1:105m--2321.662156mNRShahjahanpur, Uttar Pradesh
29LKOLucknow Charbagh (9)X  06:10+1:1106:20+1:1610m42486.537123mNR226004, Uttar Pradesh
30BBKBarabanki Junction (4)  07:06+1:0907:08+1:102m--2515.068122mNRPin-225001, Uttar Pradesh
31FDFaizabad Junction (5)  08:35+1:2308:40+1:265m--2614.327104mNRFaizabad, Uttar Pradesh
32AYAyodhya Junction (3)O  08:55+1:2708:57+1:262m22621.07098mNRAyodhya, Uttar Pradesh
33ABPAkbarpur (2)  09:43+1:3709:45+1:382m--2674.93892mNRAkbarpur, Uttar Pradesh
34SHGShahganj Junction (4)10:55+1:1711:20+1:1725m--2719.03790mNRShahganj, Uttar Pradesh
35KRNDKhorason Road (2)  11:54+1:2411:56+1:252m--2740.25085mNERUttar Pradesh 276304 ?, Uttar Pradesh
36AMHAzamgarh (2)X  12:38+1:3212:43+1:335m--2774.97281mNERAzamgarh, Uttar Pradesh
37MMAMuhammadabad (2)  13:01+1:4013:03+1:402m--2796.54880mNERMuhammadabad Marg, Uttar Pradesh
38MAUMau Junction (4)X  13:30+1:3913:35+1:455m42818.22175mNERMau., Uttar Pradesh
39IAAIndara Junction (3)  13:58+1:3514:00+1:362m--2826.07174mNERMau, Uttar Pradesh
40RSRRasra (2)  14:24+1:5314:26+1:532m--2854.35070mNERRasra, Uttar Pradesh
41BUIBallia (3)X  15:05+1:5515:10+1:585m22887.05562mNERBallia, Uttar Pradesh
42SIPSuraimanpurX  15:50+2:0515:52+2:072m--2923.43660mNERBallia, Uttar Pradesh
43CPRChhapra Junction (6)X  16:40+2:1817:00+2:2320m--2952.66058mNERDistt: Saran, Bihar
44SEESonpur Junction (4)  17:54+2:5417:59+3:155m--21006.62556mECRSaran, Bihar
45HJPHajipur Junction (3)X  18:12+3:1418:14+3:252m--21012.14555mECR06224-272230, Bihar
46MFP•Muzaffarpur Junction (6)•  19:25+4:0519:35+4:0610m--21065.93557mECRMuzaffarpur, Bihar
47SPJSamastipur Junction (9)XO21:05+3:4721:35+3:4730m--21118.15755mECRSamastipur, Bihar
48HYTHaiaghatXO  21:58+4:0022:00+4:042m--21140.12551mECRDarbhanga, Bihar
49LSILaheria Sarai (1)  22:25+3:5522:30+3:575m121150.53052mECRDarbhanga, Bihar
50DBGDarbhanga Junction (5)X  22:40+3:5822:50+3:5910m421155.52754mECRDarbhanga, Bihar
51KKHTKakarghatti  23:04+3:5623:06+3:562m--21161.84454mECRDarbhanga, Bihar
52TRSTarsarai  23:15+3:5623:17+3:562m--21168.43154mECRDarbhanga, Bihar
53SKISakri Junction (5)  23:30+3:5323:35+3:535m121175.13955mECRMadhubani, Bihar
54PDWPandaul  23:47+3:5323:49+3:532m--21182.92059mECRMadhubani, Bihar
55MBIMadhubani (3)  00:16+3:5400:18+3:572m131191.94662mECRMadhubani, Bihar
56RJARajanagar  00:31+3:5700:33+3:572m--31201.93765mECRRajnagar Distt: Madhubani, Bihar
57KJIKhajauli  00:48+3:5600:50+3:572m--31211.21870mECRMadhubani, Bihar
58JYGJaynagar (3)  01:30+3:38-131223.2-68mECRDistt: Madhubani, Bihar
Scroll to Top
Scroll to Bottom